Time,TemperatureF,DewpointF,PressureIn,WindDirection,WindDirectionDegrees,WindSpeedMPH,WindSpeedGustMPH,Humidity,HourlyPrecipIn,Conditions,Clouds,dailyrainin,SolarRadiationWatts/m^2,SoftwareType,DateUTC
2013-03-28 00:21:00,63.8,58.0,30.15,SSE,157,3.0,-999.0,82,-99.99,,,0.00,0,weatherlink.com 1.10,2013-03-28 05:21:00,
2013-03-28 00:37:00,63.8,58.0,30.14,SE,145,2.0,-999.0,82,-99.99,,,0.00,0,weatherlink.com 1.10,2013-03-28 05:37:00,
2013-03-28 00:55:00,63.9,58.0,30.14,SSE,163,4.0,-999.0,81,-99.99,,,0.00,0,weatherlink.com 1.10,2013-03-28 05:55:00,
2013-03-28 01:07:00,64.0,58.0,30.14,SSE,150,5.0,-999.0,81,-99.99,,,0.00,0,weatherlink.com 1.10,2013-03-28 06:07:00,
2013-03-28 01:22:00,64.2,58.0,30.14,SE,144,2.0,-999.0,81,-99.99,,,0.00,0,weatherlink.com 1.10,2013-03-28 06:22:00,
2013-03-28 01:37:00,64.3,58.0,30.14,SE,140,2.0,-999.0,81,-99.99,,,0.00,0,weatherlink.com 1.10,2013-03-28 06:37:00,
2013-03-28 01:52:00,64.3,58.0,30.14,ESE,113,1.0,-999.0,81,-99.99,,,0.00,0,weatherlink.com 1.10,2013-03-28 06:52:00,
2013-03-28 02:07:00,64.4,58.0,30.13,ESE,116,2.0,-999.0,81,-99.99,,,0.00,0,weatherlink.com 1.10,2013-03-28 07:07:00,
2013-03-28 02:22:00,64.4,58.0,30.13,SSW,198,1.0,-999.0,81,-99.99,,,0.00,0,weatherlink.com 1.10,2013-03-28 07:22:00,
2013-03-28 02:37:00,64.4,58.0,30.13,SSE,158,2.0,-999.0,81,-99.99,,,0.00,0,weatherlink.com 1.10,2013-03-28 07:37:00,
2013-03-28 02:52:00,64.4,59.0,30.12,SE,140,3.0,-999.0,82,-99.99,,,0.00,0,weatherlink.com 1.10,2013-03-28 07:52:00,
2013-03-28 03:07:00,64.4,59.0,30.12,East,97,1.0,-999.0,82,-99.99,,,0.00,0,weatherlink.com 1.10,2013-03-28 08:07:00,
2013-03-28 03:22:00,64.4,59.0,30.11,ENE,69,2.0,-999.0,82,-99.99,,,0.00,0,weatherlink.com 1.10,2013-03-28 08:22:00,
2013-03-28 03:37:00,64.4,59.0,30.11,SE,134,2.0,-999.0,82,-99.99,,,0.00,0,weatherlink.com 1.10,2013-03-28 08:37:00,
2013-03-28 03:52:00,64.4,59.0,30.11,SSE,151,1.0,-999.0,82,-99.99,,,0.00,0,weatherlink.com 1.10,2013-03-28 08:52:00,
2013-03-28 04:07:00,64.4,59.0,30.10,SE,132,3.0,-999.0,83,-99.99,,,0.00,0,weatherlink.com 1.10,2013-03-28 09:07:00,
2013-03-28 04:22:00,64.3,59.0,30.09,SE,142,4.0,-999.0,83,-99.99,,,0.00,0,weatherlink.com 1.10,2013-03-28 09:22:00,
2013-03-28 04:37:00,64.3,59.0,30.09,SE,124,1.0,-999.0,83,-99.99,,,0.00,0,weatherlink.com 1.10,2013-03-28 09:37:00,
2013-03-28 04:52:00,64.2,59.0,30.09,ESE,108,1.0,-999.0,83,-99.99,,,0.00,0,weatherlink.com 1.10,2013-03-28 09:52:00,
2013-03-28 05:07:00,64.2,59.0,30.09,SSE,159,3.0,-999.0,83,-99.99,,,0.00,0,weatherlink.com 1.10,2013-03-28 10:07:00,
2013-03-28 05:22:00,64.1,59.0,30.09,SSE,162,1.0,-999.0,84,-99.99,,,0.00,0,weatherlink.com 1.10,2013-03-28 10:22:00,
2013-03-28 05:37:00,64.1,59.0,30.09,SSE,155,2.0,-999.0,84,-99.99,,,0.00,0,weatherlink.com 1.10,2013-03-28 10:37:00,
2013-03-28 05:52:00,64.2,59.0,30.09,SE,141,3.0,-999.0,84,-99.99,,,0.00,0,weatherlink.com 1.10,2013-03-28 10:52:00,
2013-03-28 06:07:00,64.3,59.0,30.09,ESE,121,2.0,-999.0,84,-99.99,,,0.00,0,weatherlink.com 1.10,2013-03-28 11:07:00,
2013-03-28 06:22:00,64.3,59.0,30.09,SE,141,0.0,-999.0,84,-99.99,,,0.00,0,weatherlink.com 1.10,2013-03-28 11:22:00,
2013-03-28 06:37:00,64.3,59.0,30.09,East,98,2.0,-999.0,84,-99.99,,,0.00,0,weatherlink.com 1.10,2013-03-28 11:37:00,
2013-03-28 06:52:00,64.3,60.0,30.10,SE,138,5.0,-999.0,85,-99.99,,,0.00,0,weatherlink.com 1.10,2013-03-28 11:52:00,
2013-03-28 07:07:00,64.4,60.0,30.10,SE,132,3.0,-999.0,85,-99.99,,,0.00,0,weatherlink.com 1.10,2013-03-28 12:07:00,
2013-03-28 07:22:00,64.4,60.0,30.11,SE,146,4.0,-999.0,85,-99.99,,,0.00,0,weatherlink.com 1.10,2013-03-28 12:22:00,
2013-03-28 07:37:00,64.5,60.0,30.11,SSE,165,3.0,-999.0,85,-99.99,,,0.00,0,weatherlink.com 1.10,2013-03-28 12:37:00,
2013-03-28 07:52:00,64.7,60.0,30.11,SE,133,2.0,-999.0,85,-99.99,,,0.00,16,weatherlink.com 1.10,2013-03-28 12:52:00,
2013-03-28 08:07:00,65.0,60.0,30.11,ESE,114,0.0,-999.0,85,-99.99,,,0.00,35,weatherlink.com 1.10,2013-03-28 13:07:00,
2013-03-28 08:22:00,65.4,61.0,30.11,ESE,108,0.0,-999.0,85,-99.99,,,0.00,51,weatherlink.com 1.10,2013-03-28 13:22:00,
2013-03-28 08:38:00,65.9,61.0,30.12,ESE,123,1.0,-999.0,84,-99.99,,,0.00,70,weatherlink.com 1.10,2013-03-28 13:38:00,
2013-03-28 08:53:00,66.6,61.0,30.12,SSE,150,3.0,-999.0,83,-99.99,,,0.00,102,weatherlink.com 1.10,2013-03-28 13:53:00,
2013-03-28 09:08:00,67.3,61.0,30.12,SE,139,1.0,-999.0,81,-99.99,,,0.00,125,weatherlink.com 1.10,2013-03-28 14:08:00,
2013-03-28 09:23:00,67.5,62.0,30.12,East,94,4.0,-999.0,81,-99.99,,,0.00,236,weatherlink.com 1.10,2013-03-28 14:23:00,
2013-03-28 09:38:00,69.3,62.0,30.13,SSE,161,3.0,-999.0,78,-99.99,,,0.00,380,weatherlink.com 1.10,2013-03-28 14:38:00,
2013-03-28 10:08:00,71.4,62.0,30.14,SE,146,13.0,-999.0,72,-99.99,,,0.00,359,weatherlink.com 1.10,2013-03-28 15:08:00,
2013-03-28 10:23:00,71.2,62.0,30.14,East,96,9.0,-999.0,72,-99.99,,,0.00,332,weatherlink.com 1.10,2013-03-28 15:23:00,
2013-03-28 10:38:00,72.1,62.0,30.14,SE,141,9.0,-999.0,70,-99.99,,,0.00,364,weatherlink.com 1.10,2013-03-28 15:38:00,
2013-03-28 10:53:00,72.4,62.0,30.14,East,84,4.0,-999.0,69,-99.99,,,0.00,482,weatherlink.com 1.10,2013-03-28 15:53:00,
2013-03-28 11:10:00,72.7,62.0,30.15,SE,146,5.0,-999.0,69,-99.99,,,0.00,552,weatherlink.com 1.10,2013-03-28 16:10:00,
2013-03-28 11:23:00,73.7,62.0,30.15,South,182,9.0,-999.0,66,-99.99,,,0.00,478,weatherlink.com 1.10,2013-03-28 16:23:00,
2013-03-28 11:38:00,73.0,62.0,30.15,ESE,109,3.0,-999.0,68,-99.99,,,0.00,383,weatherlink.com 1.10,2013-03-28 16:38:00,
2013-03-28 11:53:00,72.8,62.0,30.15,NE,48,5.0,-999.0,69,-99.99,,,0.00,281,weatherlink.com 1.10,2013-03-28 16:53:00,
2013-03-28 12:08:00,72.2,62.0,30.15,ENE,57,5.0,-999.0,70,-99.99,,,0.00,250,weatherlink.com 1.10,2013-03-28 17:08:00,
2013-03-28 12:23:00,71.7,62.0,30.15,SSE,168,5.0,-999.0,72,-99.99,,,0.00,250,weatherlink.com 1.10,2013-03-28 17:23:00,
2013-03-28 12:38:00,71.9,62.0,30.14,SSE,158,5.0,-999.0,72,-99.99,,,0.00,292,weatherlink.com 1.10,2013-03-28 17:38:00,
2013-03-28 12:53:00,72.3,63.0,30.14,SE,136,5.0,-999.0,72,-99.99,,,0.00,373,weatherlink.com 1.10,2013-03-28 17:53:00,
2013-03-28 13:08:00,72.4,63.0,30.14,SSE,164,10.0,-999.0,71,-99.99,,,0.00,336,weatherlink.com 1.10,2013-03-28 18:08:00,
2013-03-28 13:23:00,72.4,63.0,30.14,SSE,152,9.0,-999.0,72,-99.99,,,0.00,371,weatherlink.com 1.10,2013-03-28 18:23:00,
2013-03-28 13:38:00,72.9,63.0,30.13,SW,215,5.0,-999.0,70,-99.99,,,0.00,420,weatherlink.com 1.10,2013-03-28 18:38:00,
2013-03-28 13:53:00,73.0,62.0,30.12,South,173,6.0,-999.0,69,-99.99,,,0.00,381,weatherlink.com 1.10,2013-03-28 18:53:00,
2013-03-28 14:08:00,73.8,63.0,30.12,SSE,157,6.0,-999.0,69,-99.99,,,0.00,571,weatherlink.com 1.10,2013-03-28 19:08:00,
2013-03-28 14:23:00,73.8,62.0,30.11,SSE,160,4.0,-999.0,67,-99.99,,,0.00,522,weatherlink.com 1.10,2013-03-28 19:23:00,
2013-03-28 14:38:00,74.4,63.0,30.11,East,100,4.0,-999.0,67,-99.99,,,0.00,629,weatherlink.com 1.10,2013-03-28 19:38:00,
2013-03-28 14:53:00,74.5,62.0,30.11,ESE,113,13.0,-999.0,65,-99.99,,,0.00,504,weatherlink.com 1.10,2013-03-28 19:53:00,
2013-03-28 15:08:00,73.8,62.0,30.10,SE,136,14.0,-999.0,67,-99.99,,,0.00,306,weatherlink.com 1.10,2013-03-28 20:08:00,
2013-03-28 15:23:00,73.2,62.0,30.10,SE,126,6.0,-999.0,69,-99.99,,,0.00,427,weatherlink.com 1.10,2013-03-28 20:23:00,
2013-03-28 15:38:00,73.1,62.0,30.09,South,186,11.0,-999.0,69,-99.99,,,0.00,258,weatherlink.com 1.10,2013-03-28 20:38:00,
2013-03-28 15:53:00,72.2,62.0,30.08,SE,128,9.0,-999.0,71,-99.99,,,0.00,278,weatherlink.com 1.10,2013-03-28 20:53:00,
2013-03-28 16:08:00,72.5,63.0,30.08,SSE,148,5.0,-999.0,71,-99.99,,,0.00,322,weatherlink.com 1.10,2013-03-28 21:08:00,
2013-03-28 16:23:00,72.4,63.0,30.08,SSE,165,7.0,-999.0,72,-99.99,,,0.00,357,weatherlink.com 1.10,2013-03-28 21:23:00,
2013-03-28 16:38:00,72.3,62.0,30.07,SSE,157,6.0,-999.0,71,-99.99,,,0.00,276,weatherlink.com 1.10,2013-03-28 21:38:00,
2013-03-28 16:53:00,72.1,63.0,30.08,SSE,151,6.0,-999.0,72,-99.99,,,0.00,223,weatherlink.com 1.10,2013-03-28 21:53:00,
2013-03-28 17:08:00,71.4,63.0,30.08,ESE,113,6.0,-999.0,74,-99.99,,,0.00,260,weatherlink.com 1.10,2013-03-28 22:08:00,
2013-03-28 17:24:00,71.5,63.0,30.08,SSE,161,3.0,-999.0,74,-99.99,,,0.00,197,weatherlink.com 1.10,2013-03-28 22:24:00,
2013-03-28 17:39:00,71.6,63.0,30.08,ESE,120,10.0,-999.0,75,-99.99,,,0.00,385,weatherlink.com 1.10,2013-03-28 22:39:00,
2013-03-28 17:54:00,71.7,63.0,30.08,SSE,155,7.0,-999.0,75,-99.99,,,0.00,229,weatherlink.com 1.10,2013-03-28 22:54:00,
2013-03-28 18:10:00,71.1,63.0,30.08,South,169,8.0,-999.0,75,-99.99,,,0.00,246,weatherlink.com 1.10,2013-03-28 23:10:00,
2013-03-28 18:24:00,71.2,63.0,30.08,SE,134,7.0,-999.0,74,-99.99,,,0.00,146,weatherlink.com 1.10,2013-03-28 23:24:00,
2013-03-28 18:39:00,70.6,63.0,30.08,ESE,113,3.0,-999.0,76,-99.99,,,0.00,107,weatherlink.com 1.10,2013-03-28 23:39:00,
2013-03-28 18:54:00,70.2,63.0,30.09,SSE,156,3.0,-999.0,77,-99.99,,,0.00,74,weatherlink.com 1.10,2013-03-28 23:54:00,
2013-03-28 19:09:00,69.6,62.0,30.09,South,172,2.0,-999.0,78,-99.99,,,0.00,51,weatherlink.com 1.10,2013-03-29 00:09:00,
2013-03-28 19:24:00,69.1,63.0,30.09,East,92,2.0,-999.0,80,-99.99,,,0.00,25,weatherlink.com 1.10,2013-03-29 00:24:00,
2013-03-28 19:39:00,68.5,63.0,30.09,SSE,155,3.0,-999.0,81,-99.99,,,0.00,7,weatherlink.com 1.10,2013-03-29 00:39:00,
2013-03-28 19:54:00,67.9,62.0,30.09,SE,142,2.0,-999.0,82,-99.99,,,0.00,0,weatherlink.com 1.10,2013-03-29 00:54:00,
2013-03-28 20:09:00,67.3,62.0,30.10,ESE,110,2.0,-999.0,83,-99.99,,,0.00,0,weatherlink.com 1.10,2013-03-29 01:09:00,
2013-03-28 20:24:00,66.8,62.0,30.10,SE,140,3.0,-999.0,84,-99.99,,,0.00,0,weatherlink.com 1.10,2013-03-29 01:24:00,
2013-03-28 20:39:00,66.6,62.0,30.11,ESE,119,2.0,-999.0,85,-99.99,,,0.00,0,weatherlink.com 1.10,2013-03-29 01:39:00,
2013-03-28 20:54:00,66.5,62.0,30.11,SSE,148,1.0,-999.0,85,-99.99,,,0.00,0,weatherlink.com 1.10,2013-03-29 01:54:00,
2013-03-28 21:09:00,66.4,62.0,30.11,ESE,106,3.0,-999.0,85,-99.99,,,0.00,0,weatherlink.com 1.10,2013-03-29 02:09:00,
2013-03-28 21:24:00,66.1,62.0,30.11,ESE,123,2.0,-999.0,85,-99.99,,,0.00,0,weatherlink.com 1.10,2013-03-29 02:24:00,
2013-03-28 21:39:00,65.8,62.0,30.11,East,99,2.0,-999.0,86,-99.99,,,0.00,0,weatherlink.com 1.10,2013-03-29 02:39:00,
2013-03-28 21:54:00,65.5,62.0,30.11,SSE,148,1.0,-999.0,87,-99.99,,,0.00,0,weatherlink.com 1.10,2013-03-29 02:54:00,
2013-03-28 22:09:00,65.3,62.0,30.12,ESE,115,1.0,-999.0,88,-99.99,,,0.00,0,weatherlink.com 1.10,2013-03-29 03:09:00,
2013-03-28 22:24:00,65.0,61.0,30.12,SE,124,1.0,-999.0,88,-99.99,,,0.00,0,weatherlink.com 1.10,2013-03-29 03:24:00,
2013-03-28 22:39:00,64.8,62.0,30.12,East,99,2.0,-999.0,89,-99.99,,,0.00,0,weatherlink.com 1.10,2013-03-29 03:39:00,
2013-03-28 22:54:00,64.7,62.0,30.13,ESE,116,0.0,-999.0,90,-99.99,,,0.00,0,weatherlink.com 1.10,2013-03-29 03:54:00,
2013-03-28 23:09:00,64.7,62.0,30.13,SE,133,0.0,-999.0,90,-99.99,,,0.00,0,weatherlink.com 1.10,2013-03-29 04:09:00,
2013-03-28 23:24:00,64.6,62.0,30.13,ESE,109,1.0,-999.0,90,-99.99,,,0.00,0,weatherlink.com 1.10,2013-03-29 04:24:00,
2013-03-28 23:40:00,64.5,62.0,30.13,ESE,116,2.0,-999.0,90,-99.99,,,0.00,0,weatherlink.com 1.10,2013-03-29 04:40:00,
2013-03-28 23:54:00,64.3,61.0,30.12,SE,132,0.0,-999.0,90,-99.99,,,0.00,0,weatherlink.com 1.10,2013-03-29 04:54:00,